Sauk Centre, Minnesota
Current Conditions -  °F | °C
As of 8:32 PM on Sunday 25 Jan 2015 (Local Time) from KD39 Reporting Station
Overcast Overcast  
Wind Chill: 18°   Ceiling: 1800
Heat Index: 25°   Visibility: 10mi
Dew Point: 22°   Wind: 7mph
Humidity: 87%   Direction: 180°S
Pressure: 29.97"   Gusts: NA
Location:  45.74°N, 94.95°W
Report Text: KD39 260232Z AUTO 18006KT 10SM OVC018 M04/M06 A2997 RMK AO2 T10371056
Loading
Personal Weather Stations






























Interactive Weather Map New forecast layout! Learn more

10-Day Weather Forecast

Advertisements
Track Severe Weather on mobile